Time;durP1;ratioP1;P1;durP2;ratioP2;P2;SDS_P1;SDS_P2;PMS_P1;PMS_P2;Temp;Humidity;BMP_temperature;BMP_pressure;BME280_temperature;BME280_humidity;BME280_pressure;Samples;Min_cycle;Max_cycle;Signal;HPM_P1;HPM_P2
2021/08/22 00:01:02;;;;;;;3.28;2.20;;;19.00;74.40;;;22.23;59.60;101339.75;3188221;30;130895;-75
2021/08/22 00:04:10;;;;;;;0.63;0.43;;;19.00;74.30;;;22.06;59.76;101343.75;3187606;38;129843;-75
2021/08/22 00:07:22;;;;;;;0.80;0.80;;;18.90;74.20;;;21.72;60.15;101347.44;3189921;30;130944;-77
2021/08/22 00:10:28;;;;;;;1.33;0.90;;;18.80;74.20;;;21.50;60.39;101347.34;3192948;38;130697;-76
2021/08/22 00:13:35;;;;;;;1.45;1.35;;;18.60;74.30;;;21.38;62.41;101359.19;3188114;38;131270;-75
2021/08/22 00:16:45;;;;;;;1.30;1.13;;;18.50;75.00;;;21.28;63.97;101378.81;3189096;38;129642;-75
2021/08/22 00:19:52;;;;;;;17.63;1.33;;;18.40;76.80;;;21.17;65.57;101390.66;3192483;30;130217;-76
2021/08/22 00:22:57;;;;;;;1.52;0.57;;;18.30;78.40;;;21.01;66.85;101360.72;3191099;30;131117;-76
2021/08/22 00:26:05;;;;;;;1.50;0.85;;;18.20;79.40;;;21.01;67.73;101368.09;3190391;38;130802;-76
2021/08/22 00:29:15;;;;;;;1.33;1.23;;;18.10;80.30;;;21.06;68.58;101376.00;3192100;38;129949;-76
2021/08/22 00:32:24;;;;;;;1.50;1.33;;;18.10;81.10;;;21.09;69.26;101367.09;3194919;38;129779;-76
2021/08/22 00:35:30;;;;;;;1.75;1.25;;;18.00;81.50;;;21.10;69.27;101374.94;3191113;38;130726;-76
2021/08/22 00:38:37;;;;;;;0.77;0.73;;;18.10;82.10;;;21.23;69.52;101367.44;3189410;30;130058;-76
2021/08/22 00:41:45;;;;;;;1.70;1.17;;;18.10;82.60;;;21.17;70.26;101361.47;3193299;30;130170;-75
2021/08/22 00:44:51;;;;;;;1.50;0.40;;;18.10;83.10;;;21.25;70.02;101360.47;3191627;38;129832;-75
2021/08/22 00:48:00;;;;;;;0.45;0.45;;;18.10;83.50;;;21.31;71.04;101348.13;3193144;30;130238;-75
2021/08/22 00:51:08;;;;;;;0.88;0.85;;;18.10;83.80;;;21.32;70.68;101341.53;3191333;38;130707;-75
2021/08/22 00:54:14;;;;;;;1.23;1.02;;;18.10;84.10;;;21.28;70.98;101328.97;3190554;38;130989;-75
2021/08/22 00:57:23;;;;;;;0.88;0.73;;;18.10;84.50;;;21.35;71.00;101332.66;3188802;38;131049;-75
2021/08/22 01:00:30;;;;;;;1.55;1.08;;;18.10;84.80;;;21.28;71.20;101320.78;3191635;30;130618;-75
2021/08/22 01:03:56;;;;;;;2.15;1.25;;;18.10;85.10;;;21.32;72.12;101311.56;3193002;30;131529;-75
2021/08/22 01:07:10;;;;;;;5.13;1.88;;;18.10;85.40;;;21.41;71.91;101314.03;3190488;30;131940;-75
2021/08/22 01:10:26;;;;;;;0.52;0.52;;;18.10;85.70;;;21.42;72.04;101312.88;3191984;30;129847;-75
2021/08/22 01:13:40;;;;;;;3.38;1.48;;;18.20;85.90;;;21.38;72.19;101314.75;3190836;38;130237;-75
2021/08/22 01:16:56;;;;;;;0.88;0.85;;;18.20;86.20;;;21.08;73.29;101317.28;3192157;30;134257;-75
2021/08/22 01:20:18;;;;;;;1.10;1.10;;;18.10;86.40;;;21.13;73.39;101314.25;3192421;30;131125;-75
2021/08/22 01:23:28;;;;;;;0.80;0.80;;;18.10;86.60;;;21.06;73.87;101305.94;3191745;38;131222;-75
2021/08/22 01:26:40;;;;;;;0.77;0.68;;;18.10;86.90;;;21.25;73.43;101311.38;3191126;38;131272;-75
2021/08/22 01:30:07;;;;;;;1.63;1.00;;;18.10;87.00;;;21.31;72.94;101304.50;3191240;38;130827;-75
2021/08/22 01:33:20;;;;;;;2.10;1.05;;;18.10;87.30;;;21.31;73.20;101301.00;3192831;38;130013;-75
2021/08/22 01:36:28;;;;;;;0.98;0.98;;;18.10;87.50;;;21.26;73.29;101315.69;3189780;38;129825;-75
2021/08/22 01:39:36;;;;;;;1.85;0.88;;;18.10;87.70;;;21.20;73.49;101308.94;3190024;38;130596;-75
2021/08/22 01:42:47;;;;;;;0.77;0.77;;;18.00;87.80;;;21.15;73.85;101317.41;3191204;38;131173;-74
2021/08/22 01:45:59;;;;;;;5.95;0.80;;;18.00;88.00;;;21.15;74.02;101333.78;3190483;30;130078;-74
2021/08/22 01:49:13;;;;;;;1.80;0.77;;;18.00;88.20;;;21.15;74.31;101330.25;3189660;30;130214;-75
2021/08/22 01:52:19;;;;;;;0.63;0.63;;;18.00;88.30;;;21.17;74.12;101336.94;3188950;38;129969;-75
2021/08/22 01:55:27;;;;;;;0.30;0.30;;;18.00;88.50;;;21.16;74.19;101334.53;3192392;38;130373;-75
2021/08/22 01:58:33;;;;;;;0.65;0.60;;;17.90;88.60;;;21.10;74.16;101325.09;3192084;30;130542;-75
2021/08/22 02:01:41;;;;;;;1.83;1.27;;;17.90;88.70;;;21.13;74.28;101322.44;3191260;38;131380;-75
2021/08/22 02:05:01;;;;;;;0.70;0.70;;;17.90;88.90;;;21.12;74.26;101318.13;3194059;30;131090;-75
2021/08/22 02:08:18;;;;;;;1.25;1.15;;;17.90;89.10;;;21.12;74.24;101320.88;3190727;30;129937;-75
2021/08/22 02:11:35;;;;;;;1.15;0.73;;;17.90;89.20;;;21.08;74.29;101319.19;3187655;30;130619;-75
2021/08/22 02:14:47;;;;;;;1.63;1.52;;;17.90;89.40;;;21.12;74.26;101318.13;3191355;38;130783;-75
2021/08/22 02:18:01;;;;;;;0.50;0.50;;;17.90;89.50;;;21.10;74.68;101309.53;3192016;38;129742;-75
2021/08/22 02:21:13;;;;;;;4.38;1.10;;;17.90;89.60;;;21.07;74.77;101304.81;3189704;30;129837;-75
2021/08/22 02:24:19;;;;;;;3.00;1.88;;;17.80;89.70;;;21.12;74.81;101301.78;3190744;30;131475;-75
2021/08/22 02:27:26;;;;;;;1.58;1.48;;;17.80;89.80;;;21.03;75.11;101303.94;3189868;30;130629;-75
2021/08/22 02:30:37;;;;;;;4.82;1.58;;;17.80;89.90;;;21.02;75.24;101304.28;3187519;38;130275;-75
2021/08/22 02:33:43;;;;;;;0.85;0.85;;;17.80;90.00;;;21.10;75.21;101304.09;3187464;38;130357;-75
2021/08/22 02:36:51;;;;;;;3.00;0.98;;;17.80;90.00;;;21.15;75.07;101295.63;3188290;38;129926;-75
2021/08/22 02:39:58;;;;;;;5.65;2.20;;;17.90;90.10;;;21.15;75.00;101295.63;3189382;30;130908;-75
2021/08/22 02:43:06;;;;;;;1.60;0.95;;;17.90;90.10;;;21.12;74.96;101288.16;3187652;38;130316;-75
2021/08/22 02:46:12;;;;;;;1.60;1.50;;;17.90;90.20;;;21.09;75.42;101286.16;3187764;38;129949;-75
2021/08/22 02:49:18;;;;;;;0.60;0.60;;;17.80;90.40;;;21.04;75.57;101291.09;3189316;30;129798;-75
2021/08/22 02:52:27;;;;;;;7.03;1.33;;;17.90;90.30;;;21.04;75.71;101291.91;3188036;38;131615;-75
2021/08/22 02:55:33;;;;;;;1.65;1.05;;;17.90;90.40;;;21.03;75.83;101293.03;3186650;38;129806;-75
2021/08/22 02:58:39;;;;;;;2.17;1.17;;;17.90;90.40;;;21.00;75.79;101296.47;3189741;30;129833;-75
2021/08/22 03:01:44;;;;;;;3.05;1.83;;;17.80;90.50;;;21.06;75.88;101297.78;3188581;38;132818;-75
2021/08/22 03:04:51;;;;;;;1.45;1.33;;;17.80;90.50;;;21.13;75.52;101300.63;3188316;38;130263;-75
2021/08/22 03:07:59;;;;;;;2.00;1.85;;;17.80;90.60;;;21.15;75.70;101300.25;3187489;38;130045;-75
2021/08/22 03:11:07;;;;;;;1.23;1.15;;;17.80;90.60;;;21.13;75.41;101300.63;3189106;38;130658;-75
2021/08/22 03:14:12;;;;;;;1.92;1.67;;;17.80;90.60;;;21.14;75.52;101294.03;3189173;38;129651;-76
2021/08/22 03:17:18;;;;;;;1.20;0.82;;;17.80;90.70;;;21.15;75.53;101284.72;3188330;38;129837;-75
2021/08/22 03:20:24;;;;;;;4.50;1.25;;;17.80;90.70;;;21.18;75.63;101288.66;3188269;38;130254;-75
2021/08/22 03:23:33;;;;;;;2.20;1.65;;;17.80;90.70;;;21.14;75.66;101283.13;3188497;30;130633;-75
2021/08/22 03:26:39;;;;;;;2.65;1.65;;;17.80;90.80;;;21.03;75.90;101286.78;3190506;30;130734;-75
2021/08/22 03:29:45;;;;;;;3.05;1.48;;;17.80;90.80;;;20.93;76.18;101285.41;3188371;38;129885;-76
2021/08/22 03:32:50;;;;;;;3.60;1.88;;;17.70;90.90;;;20.85;76.48;101286.41;3188899;38;129667;-75
2021/08/22 03:35:57;;;;;;;2.05;1.92;;;17.70;90.90;;;20.78;76.55;101280.78;3189153;30;130403;-75
2021/08/22 03:39:06;;;;;;;3.00;1.95;;;17.70;91.00;;;20.84;76.58;101276.66;3187494;38;130397;-75
2021/08/22 03:42:12;;;;;;;2.20;0.77;;;17.60;91.00;;;20.90;76.38;101280.69;3186747;38;130360;-76
2021/08/22 03:45:18;;;;;;;1.48;1.38;;;17.70;91.10;;;20.92;76.56;101285.78;3188964;38;129746;-75
2021/08/22 03:48:24;;;;;;;5.15;1.63;;;17.60;91.10;;;20.92;76.54;101278.38;3188218;30;129776;-76
2021/08/22 03:51:30;;;;;;;2.65;1.23;;;17.60;91.10;;;20.96;76.51;101275.75;3190169;30;129867;-76
2021/08/22 03:54:39;;;;;;;1.58;1.13;;;17.70;91.20;;;20.95;76.71;101285.84;3188115;30;130392;-75
2021/08/22 03:57:44;;;;;;;2.40;1.45;;;17.70;91.20;;;20.91;76.88;101287.72;3186408;38;132775;-75
2021/08/22 04:00:51;;;;;;;2.80;1.35;;;17.70;91.20;;;20.91;76.84;101279.53;3188926;30;130122;-76
2021/08/22 04:03:57;;;;;;;0.85;0.82;;;17.70;91.30;;;20.98;76.71;101268.00;3189582;38;130009;-76
2021/08/22 04:07:19;;;;;;;2.63;2.13;;;17.70;91.30;;;21.01;76.52;101276.22;3188516;38;130363;-76
2021/08/22 04:10:28;;;;;;;0.50;0.50;;;17.70;91.30;;;20.96;76.77;101275.75;3194033;30;129858;-75
2021/08/22 04:13:35;;;;;;;8.57;2.03;;;17.70;91.30;;;20.91;76.81;101278.75;3191291;38;129923;-75
2021/08/22 04:16:41;;;;;;;6.80;0.93;;;17.70;91.40;;;20.87;76.93;101277.91;3191060;38;130114;-76
2021/08/22 04:19:48;;;;;;;0.80;0.80;;;17.70;91.40;;;20.90;76.95;101274.47;3193367;30;129869;-76
2021/08/22 04:22:54;;;;;;;3.20;2.10;;;17.70;91.40;;;20.84;77.16;101279.38;3194304;30;129657;-76
2021/08/22 04:26:09;;;;;;;3.90;2.72;;;17.60;91.40;;;20.82;77.30;101281.69;3193143;38;129940;-75
2021/08/22 04:29:15;;;;;;;;;;;17.70;91.40;;;20.79;77.08;101287.00;3197207;38;130093;-76
2021/08/22 04:32:22;;;;;;;0.47;0.47;;;17.60;91.40;;;20.88;77.04;101284.94;3199573;38;130089;-75
2021/08/22 04:35:28;;;;;;;2.70;0.93;;;17.60;91.50;;;20.75;77.25;101284.22;3201780;30;129433;-76
2021/08/22 04:38:40;;;;;;;1.35;1.25;;;17.60;91.50;;;20.78;77.18;101283.50;3196015;38;132807;-76
2021/08/22 04:41:49;;;;;;;1.08;0.75;;;17.50;91.50;;;20.78;77.33;101282.72;3191088;38;129875;-76
2021/08/22 04:44:55;;;;;;;0.82;0.82;;;17.60;91.60;;;20.87;76.90;101286.84;3192805;38;130388;-76
2021/08/22 04:48:01;;;;;;;2.67;1.80;;;17.60;91.60;;;20.91;76.88;101284.22;3190317;30;129326;-76
2021/08/22 04:51:10;;;;;;;1.65;1.45;;;17.60;91.60;;;20.98;76.87;101285.13;3190879;30;130868;-76
2021/08/22 04:54:15;;;;;;;2.80;1.67;;;17.60;91.60;;;21.02;76.81;101280.56;3191954;30;130692;-76
2021/08/22 04:57:24;;;;;;;2.92;1.70;;;17.60;91.60;;;20.97;76.88;101285.50;3187014;38;132643;-76
2021/08/22 05:00:30;;;;;;;5.95;1.77;;;17.60;91.70;;;20.94;76.80;101278.81;3189956;38;129663;-76
2021/08/22 05:03:36;;;;;;;0.70;0.70;;;17.70;91.70;;;20.95;77.18;101287.78;3189490;38;130227;-76
2021/08/22 05:06:42;;;;;;;7.43;2.83;;;17.70;91.60;;;21.01;77.09;101297.25;3188425;38;129885;-76
2021/08/22 05:09:49;;;;;;;0.43;0.43;;;17.70;91.60;;;20.97;77.15;101297.16;3190862;38;129832;-76
2021/08/22 05:12:57;;;;;;;3.13;1.70;;;17.70;91.60;;;21.01;77.03;101298.03;3189106;38;129855;-76
2021/08/22 05:16:06;;;;;;;1.65;1.55;;;17.70;91.70;;;21.03;77.30;101301.22;3187354;38;132378;-76
2021/08/22 05:19:12;;;;;;;3.13;1.90;;;17.70;91.70;;;21.04;77.42;101300.06;3189699;38;129914;-76
2021/08/22 05:22:18;;;;;;;4.63;3.65;;;17.80;91.70;;;21.11;77.26;101308.38;3188560;38;129924;-76
2021/08/22 05:25:24;;;;;;;1.35;1.08;;;17.80;91.70;;;21.23;76.98;101307.47;3190599;30;130622;-76
2021/08/22 05:28:32;;;;;;;0.90;0.82;;;17.90;91.70;;;21.34;76.64;101311.97;3188226;38;130193;-76
2021/08/22 05:31:38;;;;;;;1.48;1.35;;;17.90;91.60;;;21.33;76.77;101318.59;3190635;30;130742;-76
2021/08/22 05:34:45;;;;;;;2.03;1.50;;;18.00;91.60;;;21.36;76.73;101312.41;3189350;30;132379;-76
2021/08/22 05:37:51;;;;;;;1.90;1.77;;;18.00;91.60;;;21.42;76.65;101318.34;3188438;38;129876;-76
2021/08/22 05:40:57;;;;;;;0.80;0.80;;;18.00;91.70;;;21.28;77.08;101320.78;3187743;38;131086;-76
2021/08/22 05:44:06;;;;;;;1.52;0.98;;;18.00;91.70;;;21.26;77.17;101326.59;3189687;38;129687;-76
2021/08/22 05:47:12;;;;;;;1.55;1.23;;;18.00;91.70;;;21.28;77.10;101327.03;3190500;30;130163;-76
2021/08/22 05:50:18;;;;;;;0.70;0.45;;;18.00;91.80;;;21.31;76.79;101331.75;3189337;38;130657;-76
2021/08/22 05:53:24;;;;;;;1.65;0.55;;;18.00;91.80;;;21.17;77.62;101334.19;3189293;38;130322;-76
2021/08/22 05:56:30;;;;;;;2.92;1.38;;;18.00;91.90;;;21.21;77.53;101329.59;3188853;38;130214;-76
2021/08/22 05:59:38;;;;;;;5.93;1.35;;;18.00;91.80;;;21.21;77.73;101329.59;3189068;38;129841;-76
2021/08/22 06:02:44;;;;;;;5.53;1.15;;;18.00;91.80;;;21.30;77.63;101335.63;3188640;38;131134;-76
2021/08/22 06:05:50;;;;;;;1.23;1.05;;;18.00;91.80;;;21.45;76.79;101342.16;3188922;30;135226;-76
2021/08/22 06:08:56;;;;;;;6.38;2.75;;;18.00;91.80;;;21.45;76.68;101332.06;3190210;38;130560;-76
2021/08/22 06:12:02;;;;;;;1.98;1.27;;;18.00;91.80;;;21.47;77.14;101335.22;3187473;38;129738;-76
2021/08/22 06:15:13;;;;;;;1.83;1.23;;;18.00;91.90;;;21.53;76.79;101327.53;3191866;30;129691;-76
2021/08/22 06:18:20;;;;;;;2.08;1.80;;;18.00;91.90;;;21.54;76.57;101332.63;3189379;30;130609;-76
2021/08/22 06:21:26;;;;;;;1.52;1.42;;;18.10;91.90;;;21.65;76.21;101333.66;3189948;30;129698;-76
2021/08/22 06:24:32;;;;;;;2.03;1.15;;;18.00;91.90;;;21.80;75.88;101338.22;3188240;38;131080;-76
2021/08/22 06:27:38;;;;;;;1.40;1.30;;;18.10;91.90;;;21.85;75.95;101337.13;3189814;38;130450;-76
2021/08/22 06:30:47;;;;;;;0.73;0.73;;;18.20;91.80;;;21.73;76.42;101338.09;3189187;38;130259;-76
2021/08/22 06:33:53;;;;;;;1.00;1.00;;;18.20;91.90;;;21.69;76.33;101342.69;3191226;30;129812;-76
2021/08/22 06:36:59;;;;;;;0.57;0.57;;;18.20;91.90;;;21.68;76.50;101349.31;3188727;38;132037;-76
2021/08/22 06:40:14;;;;;;;0.52;0.50;;;18.20;92.00;;;21.75;76.40;101343.16;3188117;38;130867;-76
2021/08/22 06:43:20;;;;;;;1.05;1.02;;;18.20;92.00;;;21.85;76.29;101346.09;3190905;30;129835;-76
2021/08/22 06:46:28;;;;;;;2.20;1.38;;;18.20;91.90;;;21.76;76.64;101342.81;3188793;38;132880;-76
2021/08/22 06:49:35;;;;;;;2.17;1.85;;;18.20;91.90;;;21.78;76.41;101343.25;3190194;38;131173;-76
2021/08/22 06:52:41;;;;;;;2.15;1.90;;;18.20;92.00;;;21.83;76.31;101340.22;3188741;38;129818;-76
2021/08/22 06:55:47;;;;;;;5.05;3.30;;;18.30;91.90;;;21.87;76.46;101338.34;3188935;38;130400;-76
2021/08/22 06:58:52;;;;;;;3.13;1.80;;;18.30;91.90;;;21.93;76.09;101341.56;3189170;38;130314;-76
2021/08/22 07:02:01;;;;;;;1.45;1.35;;;18.40;91.90;;;21.86;76.49;101339.50;3190140;30;130067;-76
2021/08/22 07:05:15;;;;;;;2.65;1.05;;;18.30;91.90;;;21.81;76.74;101336.28;3189083;38;129903;-76
2021/08/22 07:08:22;;;;;;;2.97;2.10;;;18.30;92.00;;;21.84;76.65;101339.06;3189366;38;130687;-77
2021/08/22 07:11:28;;;;;;;5.10;2.15;;;18.30;92.10;;;22.02;76.05;101345.66;3189349;30;129716;-77
2021/08/22 07:14:35;;;;;;;3.67;2.13;;;18.40;92.10;;;22.10;76.03;101341.09;3189318;38;130155;-76
2021/08/22 07:17:43;;;;;;;3.00;1.63;;;18.40;92.00;;;22.12;76.13;101342.31;3188311;30;129672;-76
2021/08/22 07:20:50;;;;;;;2.22;1.85;;;18.50;92.00;;;22.33;75.75;101339.94;3189174;38;130008;-76
2021/08/22 07:23:55;;;;;;;3.15;1.45;;;18.60;91.90;;;22.52;75.07;101348.09;3189627;30;130826;-76
2021/08/22 07:27:01;;;;;;;2.13;1.85;;;18.70;91.80;;;22.64;75.12;101347.88;3187994;30;129159;-76
2021/08/22 07:30:11;;;;;;;4.30;1.17;;;18.80;91.70;;;22.68;75.12;101343.25;3189161;30;130834;-76
2021/08/22 07:33:20;;;;;;;1.85;1.73;;;18.90;91.70;;;22.57;75.65;101345.81;3186446;30;130604;-76
2021/08/22 07:36:25;;;;;;;4.07;1.88;;;18.90;91.70;;;22.56;75.92;101346.19;3186403;38;130411;-76
2021/08/22 07:39:32;;;;;;;1.77;0.85;;;19.00;91.70;;;22.81;75.38;101347.34;3186051;38;129783;-76
2021/08/22 07:42:38;;;;;;;0.65;0.65;;;19.10;91.60;;;22.95;74.90;101351.06;3185977;38;129886;-76
2021/08/22 07:45:45;;;;;;;1.75;1.48;;;19.30;91.40;;;23.17;74.59;101347.50;3186874;38;130819;-76
2021/08/22 07:48:54;;;;;;;3.22;1.08;;;19.40;91.40;;;24.38;71.36;101347.25;3185416;38;130230;-74
2021/08/22 07:52:00;;;;;;;1.50;1.05;;;19.70;91.30;;;28.55;59.21;101355.13;3184457;38;132284;-75
2021/08/22 07:55:11;;;;;;;0.95;0.90;;;20.80;90.10;;;30.78;55.28;101352.09;3185015;38;129717;-77
2021/08/22 07:58:17;;;;;;;1.65;0.98;;;22.20;87.50;;;29.99;58.62;101351.41;3185741;30;130298;-74
2021/08/22 08:01:23;;;;;;;4.65;1.70;;;23.20;85.60;;;28.11;65.35;101357.78;3185828;38;133219;-77
2021/08/22 08:04:33;;;;;;;7.57;1.88;;;23.40;85.90;;;26.85;69.68;101371.28;3184933;38;130725;-76
2021/08/22 08:07:39;;;;;;;5.85;2.78;;;23.10;87.20;;;26.08;72.08;101379.53;3185773;38;130022;-76
2021/08/22 08:10:51;;;;;;;3.10;1.65;;;22.70;88.80;;;25.43;74.10;101380.09;3188401;30;131200;-76
2021/08/22 08:13:57;;;;;;;5.78;1.77;;;22.40;90.00;;;25.03;75.34;101375.53;3188374;38;130029;-77
2021/08/22 08:17:03;;;;;;;4.70;2.40;;;22.10;90.50;;;25.03;75.29;101375.53;3189942;38;130466;-76
2021/08/22 08:20:14;;;;;;;4.03;1.92;;;21.80;90.90;;;24.83;75.34;101382.47;3190061;30;130947;-76
2021/08/22 08:23:20;;;;;;;2.83;1.48;;;21.60;91.00;;;24.59;75.92;101379.56;3189631;30;130182;-77
2021/08/22 08:26:27;;;;;;;9.65;3.35;;;21.40;91.10;;;24.21;76.12;101388.97;3187950;38;129822;-77
2021/08/22 08:29:33;;;;;;;6.63;2.78;;;21.20;91.20;;;23.81;77.42;101392.81;3190905;30;129932;-76
2021/08/22 08:32:41;;;;;;;1.48;1.38;;;21.00;91.50;;;23.50;77.76;101388.53;3187575;38;131089;-76
2021/08/22 08:36:01;;;;;;;9.38;1.35;;;20.60;91.60;;;23.26;78.22;101385.50;3189769;38;131463;-77
2021/08/22 08:39:09;;;;;;;2.88;1.10;;;20.40;91.90;;;23.18;78.10;101386.56;3190700;38;131446;-76
2021/08/22 08:42:21;;;;;;;9.13;1.77;;;20.20;92.10;;;23.36;77.50;101387.56;3187993;38;130279;-77
2021/08/22 08:45:39;;;;;;;1.63;1.48;;;20.10;92.30;;;23.42;77.45;101392.34;3191271;30;134090;-77
2021/08/22 08:48:49;;;;;;;14.85;2.63;;;20.10;92.30;;;23.66;76.76;101399.28;3189935;38;130553;-76
2021/08/22 08:52:01;;;;;;;4.65;2.05;;;20.10;92.30;;;23.99;76.07;101397.34;3189812;38;130713;-76
2021/08/22 08:55:16;;;;;;;17.48;1.83;;;20.30;92.20;;;24.04;75.95;101392.34;3187004;38;131206;-76
2021/08/22 08:58:21;;;;;;;2.85;2.65;;;20.40;92.10;;;23.90;76.44;101396.06;3186255;38;130083;-76
2021/08/22 09:01:28;;;;;;;3.10;2.05;;;20.40;92.00;;;23.77;76.75;101402.97;3189253;30;130848;-76
2021/08/22 09:04:36;;;;;;;1.45;1.35;;;20.40;92.10;;;23.82;76.61;101397.16;3187426;38;130155;-76
2021/08/22 09:08:55;;;;;;;1.75;1.13;;;20.40;92.10;;;24.00;76.10;101396.19;3186978;38;129624;-76
2021/08/22 09:13:07;;;;;;;3.10;2.30;;;20.40;91.90;;;24.20;75.47;101395.63;3186796;30;129663;-76
2021/08/22 09:17:19;;;;;;;3.63;2.33;;;20.50;91.90;;;24.58;74.82;101389.72;3188126;38;130518;-76
2021/08/22 09:21:34;;;;;;;4.07;2.60;;;20.70;91.70;;;24.91;73.89;101392.28;3186902;38;131060;-76
2021/08/22 09:25:51;;;;;;;4.50;1.77;;;20.90;91.40;;;25.20;72.94;101391.31;3187079;38;131651;-76
2021/08/22 09:30:09;;;;;;;2.33;1.85;;;21.10;91.20;;;25.52;72.44;101394.22;3187365;38;130764;-76
2021/08/22 09:34:35;;;;;;;5.88;1.55;;;21.30;90.90;;;26.00;71.19;101393.63;3185743;38;130953;-76
2021/08/22 09:38:34;;;;;;;4.20;1.77;;;21.60;90.60;;;25.61;73.09;101395.47;3185992;38;130643;-76
2021/08/22 09:42:56;;;;;;;3.03;1.33;;;21.80;90.50;;;25.79;72.95;101396.28;3185958;38;129788;-76
2021/08/22 09:47:14;;;;;;;1.98;1.30;;;21.90;90.70;;;26.45;71.11;101401.16;3186934;38;130725;-76
2021/08/22 09:51:22;;;;;;;1.17;1.08;;;22.20;90.50;;;26.76;70.30;101401.16;3186633;38;129912;-76
2021/08/22 09:55:46;;;;;;;3.78;2.22;;;22.60;89.90;;;26.61;71.58;101404.31;3185890;38;130863;-77
2021/08/22 09:59:45;;;;;;;3.85;1.92;;;22.70;90.10;;;28.15;67.18;101397.13;3188058;30;129881;-77
2021/08/22 10:03:50;;;;;;;2.22;2.03;;;23.10;90.00;;;29.06;65.64;101390.88;3186113;38;129974;-76
2021/08/22 10:07:44;;;;;;;10.77;2.83;;;23.90;88.20;;;28.80;67.77;101396.25;3187400;38;129817;-77
2021/08/22 10:10:53;;;;;;;5.00;1.13;;;24.30;87.80;;;29.71;65.79;101385.78;3186542;38;130184;-77
2021/08/22 10:13:59;;;;;;;6.00;3.38;;;24.70;87.40;;;29.19;67.65;101372.59;3198049;38;131313;-77
2021/08/22 10:17:22;;;;;;;7.55;3.53;;;24.90;86.80;;;29.56;66.84;101380.84;3197527;30;132442;-76
2021/08/22 10:20:44;;;;;;;1.70;1.10;;;25.00;86.90;;;29.66;67.32;101379.91;3187158;30;130178;-77
2021/08/22 10:23:54;;;;;;;2.83;1.52;;;25.20;87.10;;;30.34;66.20;101393.16;3188187;38;129753;-76
2021/08/22 10:27:00;;;;;;;1.73;0.98;;;25.50;87.10;;;30.25;66.71;101379.09;3186532;38;129706;-76
